Time;durP1;ratioP1;P1;durP2;ratioP2;P2;SDS_P1;SDS_P2;PMS_P1;PMS_P2;Temp;Humidity;BMP_temperature;BMP_pressure;BME280_temperature;BME280_humidity;BME280_pressure;Samples;Min_cycle;Max_cycle;Signal;HPM_P1;HPM_P2
2024/01/14 00:02:06;;;;;;;35.30;21.63;;;-3.10;15.00;;;;;;4935064;29;20460;-69
2024/01/14 00:04:31;;;;;;;43.77;21.27;;;-3.00;14.30;;;;;;4935257;29;20596;-70
2024/01/14 00:06:57;;;;;;;45.40;23.83;;;-3.10;15.00;;;;;;4934907;29;20181;-69
2024/01/14 00:09:23;;;;;;;37.77;21.03;;;-3.10;15.00;;;;;;4935067;29;20180;-69
2024/01/14 00:11:49;;;;;;;42.70;21.20;;;-3.10;13.60;;;;;;4934874;29;20247;-68
2024/01/14 00:14:15;;;;;;;40.97;22.80;;;-3.10;14.00;;;;;;4935020;29;20187;-70
2024/01/14 00:16:40;;;;;;;34.83;20.17;;;-3.10;13.70;;;;;;4934952;29;20530;-69
2024/01/14 00:19:07;;;;;;;30.43;19.53;;;-3.00;12.30;;;;;;4935033;29;20259;-69
2024/01/14 00:21:32;;;;;;;36.63;22.17;;;-3.10;8.30;;;;;;4935061;29;20193;-69
2024/01/14 00:23:58;;;;;;;42.00;19.77;;;-3.20;6.40;;;;;;4934705;29;20183;-69
2024/01/14 00:26:27;;;;;;;36.87;20.83;;;-3.20;6.40;;;;;;4935002;29;20265;-69
2024/01/14 00:28:54;;;;;;;31.00;17.60;;;-3.30;5.70;;;;;;4934983;29;20279;-69
2024/01/14 00:31:19;;;;;;;38.22;22.88;;;-3.30;6.30;;;;;;4934853;29;20617;-69
2024/01/14 00:33:45;;;;;;;33.70;19.57;;;-3.30;6.20;;;;;;4917761;29;20258;-69
2024/01/14 00:36:10;;;;;;;41.30;19.57;;;-3.30;5.50;;;;;;4917755;29;20181;-69
2024/01/14 00:38:36;;;;;;;30.27;19.60;;;-3.20;4.50;;;;;;4935195;29;20252;-70
2024/01/14 00:41:02;;;;;;;32.17;18.52;;;-3.20;5.20;;;;;;4935135;29;20197;-70
2024/01/14 00:43:28;;;;;;;25.10;17.27;;;-3.20;5.40;;;;;;4918949;29;20199;-70
2024/01/14 00:45:53;;;;;;;39.47;20.33;;;-3.30;5.30;;;;;;4935940;29;20182;-69
2024/01/14 00:48:19;;;;;;;38.27;20.07;;;-3.40;5.20;;;;;;4935434;29;20245;-69
2024/01/14 00:50:44;;;;;;;31.57;19.07;;;-3.40;6.20;;;;;;4934627;29;20192;-69
2024/01/14 00:53:10;;;;;;;33.47;18.40;;;-3.30;6.30;;;;;;4934628;29;20215;-69
2024/01/14 00:55:37;;;;;;;27.00;16.10;;;-3.50;4.30;;;;;;4934744;29;20182;-69
2024/01/14 00:58:02;;;;;;;40.75;19.90;;;-3.40;4.40;;;;;;4917537;29;20722;-69
2024/01/14 01:00:28;;;;;;;35.10;17.70;;;-3.50;2.30;;;;;;4934308;29;20273;-69
2024/01/14 01:02:54;;;;;;;32.53;18.03;;;-3.60;2.20;;;;;;4916928;29;20210;-68
2024/01/14 01:05:19;;;;;;;36.73;19.83;;;-3.70;1.70;;;;;;4934213;29;20196;-69
2024/01/14 01:07:45;;;;;;;35.13;18.30;;;-3.60;2.10;;;;;;4934202;29;20353;-69
2024/01/14 01:10:12;;;;;;;31.98;18.45;;;-3.70;3.30;;;;;;4934146;29;20279;-68
2024/01/14 01:12:38;;;;;;;33.47;19.27;;;-3.70;4.60;;;;;;4934112;29;20194;-69
2024/01/14 01:15:05;;;;;;;44.45;21.77;;;-3.70;5.30;;;;;;4934545;29;20175;-69
2024/01/14 01:17:31;;;;;;;35.45;18.60;;;-3.70;6.00;;;;;;4917192;29;20658;-68
2024/01/14 01:19:58;;;;;;;32.00;17.88;;;-3.70;6.10;;;;;;4917010;29;20182;-69
2024/01/14 01:22:23;;;;;;;36.25;21.02;;;-3.70;6.10;;;;;;4916758;29;20301;-69
2024/01/14 01:24:49;;;;;;;28.47;18.60;;;-3.70;5.40;;;;;;4934265;29;20688;-69
2024/01/14 01:27:15;;;;;;;29.63;17.27;;;-3.70;2.90;;;;;;4933637;29;20554;-69
2024/01/14 01:29:41;;;;;;;34.00;19.37;;;-3.80;1.60;;;;;;4933958;29;20187;-69
2024/01/14 01:32:06;;;;;;;31.93;16.90;;;-3.90;1.50;;;;;;4933937;29;20666;-68
2024/01/14 01:34:32;;;;;;;34.53;17.27;;;-3.90;1.50;;;;;;4933756;29;20171;-69
2024/01/14 01:36:58;;;;;;;29.70;15.97;;;-4.00;1.00;;;;;;4916727;29;20198;-69
2024/01/14 01:39:23;;;;;;;31.38;17.92;;;-4.10;1.00;;;;;;4934003;29;20265;-69
2024/01/14 01:41:50;;;;;;;36.17;20.83;;;-4.10;3.90;;;;;;4933719;29;20212;-69
2024/01/14 01:44:16;;;;;;;32.67;17.95;;;-4.10;6.40;;;;;;4933533;29;20596;-69
2024/01/14 01:46:42;;;;;;;36.77;20.13;;;-4.10;8.20;;;;;;4916826;29;20187;-69
2024/01/14 01:49:09;;;;;;;30.15;17.70;;;-4.20;6.40;;;;;;4933661;29;20717;-69
2024/01/14 01:51:36;;;;;;;27.05;15.75;;;-4.30;4.00;;;;;;4933562;29;20197;-68
2024/01/14 01:54:01;;;;;;;30.42;16.70;;;-4.40;1.20;;;;;;4933572;29;20194;-69
2024/01/14 01:56:27;;;;;;;24.87;14.67;;;-4.50;1.20;;;;;;4916686;29;20195;-69
2024/01/14 01:58:53;;;;;;;27.17;15.40;;;-4.70;1.10;;;;;;4936585;29;20933;-67
2024/01/14 02:01:21;;;;;;;33.15;17.50;;;-4.80;1.50;;;;;;4920312;29;20269;-67
2024/01/14 02:03:50;;;;;;;31.42;17.48;;;-4.90;1.50;;;;;;4937240;29;20181;-69
2024/01/14 02:06:16;;;;;;;35.15;17.45;;;-5.00;2.40;;;;;;4937170;29;20190;-68
2024/01/14 02:08:41;;;;;;;26.88;15.40;;;-5.20;3.10;;;;;;4937433;29;20217;-68
2024/01/14 02:11:08;;;;;;;32.83;17.37;;;-5.30;4.30;;;;;;4937217;29;20186;-68
2024/01/14 02:13:33;;;;;;;27.08;16.85;;;-5.30;5.00;;;;;;4919970;29;20635;-68
2024/01/14 02:15:59;;;;;;;28.87;16.63;;;-5.30;5.00;;;;;;4937197;29;20203;-68
2024/01/14 02:18:25;;;;;;;28.07;15.53;;;-5.40;5.20;;;;;;4937216;29;20250;-68
2024/01/14 02:20:50;;;;;;;28.50;15.80;;;-5.40;5.10;;;;;;4937372;29;20179;-68
2024/01/14 02:23:20;;;;;;;32.20;17.30;;;-5.50;4.90;;;;;;4919620;29;20288;-69
2024/01/14 02:25:46;;;;;;;32.97;17.17;;;-5.50;4.90;;;;;;4937067;29;20222;-68
2024/01/14 02:28:12;;;;;;;30.30;16.40;;;-5.50;4.50;;;;;;4919476;29;20626;-69
2024/01/14 02:30:39;;;;;;;32.97;18.38;;;-5.60;4.60;;;;;;4936930;29;20414;-69
2024/01/14 02:33:04;;;;;;;27.85;15.82;;;-5.70;4.80;;;;;;4936660;29;20194;-69
2024/01/14 02:35:30;;;;;;;29.90;19.93;;;-5.80;4.70;;;;;;4937233;29;20193;-68
2024/01/14 02:37:55;;;;;;;29.83;16.23;;;-5.90;4.90;;;;;;4936666;29;20191;-69
2024/01/14 02:40:21;;;;;;;27.63;16.00;;;-6.00;5.30;;;;;;4917808;29;20237;-69
2024/01/14 02:42:46;;;;;;;34.00;17.10;;;-6.10;5.50;;;;;;4917615;29;20203;-69
2024/01/14 02:45:12;;;;;;;25.07;16.60;;;-6.20;6.20;;;;;;4916437;29;20180;-69
2024/01/14 02:47:38;;;;;;;23.87;15.33;;;-6.20;6.60;;;;;;4929022;29;20810;-68
2024/01/14 02:50:04;;;;;;;31.93;18.73;;;-6.30;6.70;;;;;;4919865;29;20186;-68
2024/01/14 02:52:29;;;;;;;30.57;16.80;;;-6.40;6.60;;;;;;4953625;23;20307;-67
2024/01/14 02:54:55;;;;;;;29.50;14.73;;;-6.40;7.60;;;;;;4978610;28;20409;-68
2024/01/14 02:57:20;;;;;;;32.30;18.27;;;-6.40;7.40;;;;;;4991348;28;20221;-68
2024/01/14 02:59:46;;;;;;;39.70;18.17;;;-6.40;7.50;;;;;;4974989;28;20230;-67
2024/01/14 03:02:12;;;;;;;26.30;17.23;;;-6.50;8.60;;;;;;4989852;28;20201;-67
2024/01/14 03:04:37;;;;;;;32.47;15.90;;;-6.50;8.10;;;;;;4979088;28;20658;-66
2024/01/14 03:07:03;;;;;;;40.97;19.03;;;-6.40;9.10;;;;;;4950055;29;20185;-67
2024/01/14 03:09:28;;;;;;;29.10;17.57;;;-6.40;10.00;;;;;;4954481;28;20552;-67
2024/01/14 03:11:54;;;;;;;28.17;16.00;;;-6.30;10.20;;;;;;4955329;28;20205;-67
2024/01/14 03:14:20;;;;;;;36.03;18.40;;;-6.20;10.50;;;;;;4955184;29;20182;-67
2024/01/14 03:16:45;;;;;;;31.63;17.73;;;-6.10;10.30;;;;;;4959593;28;20193;-67
2024/01/14 03:19:11;;;;;;;26.87;15.63;;;-6.10;10.50;;;;;;4972930;28;20193;-69
2024/01/14 03:21:37;;;;;;;33.30;17.57;;;-6.00;10.40;;;;;;4974694;28;20216;-68
2024/01/14 03:24:03;;;;;;;37.87;19.77;;;-5.90;9.80;;;;;;4974407;28;20177;-68
2024/01/14 03:26:29;;;;;;;28.75;18.23;;;-5.80;10.00;;;;;;4959707;28;20280;-68
2024/01/14 03:28:54;;;;;;;30.80;16.90;;;-5.70;10.30;;;;;;4937716;29;20308;-68
2024/01/14 03:31:20;;;;;;;35.43;19.23;;;-5.60;9.50;;;;;;4973552;28;20173;-67
2024/01/14 03:33:46;;;;;;;37.67;19.90;;;-5.50;9.20;;;;;;4974108;28;20197;-67
2024/01/14 03:36:14;;;;;;;30.07;19.70;;;-5.50;9.20;;;;;;4974335;28;20239;-68
2024/01/14 03:38:41;;;;;;;34.72;20.25;;;-5.60;9.30;;;;;;4973683;28;20503;-67
2024/01/14 03:41:06;;;;;;;37.10;20.70;;;-5.50;11.20;;;;;;4973665;28;20606;-66
2024/01/14 03:43:32;;;;;;;34.63;18.93;;;-5.40;11.10;;;;;;4956232;28;20206;-68
2024/01/14 03:45:57;;;;;;;29.87;17.27;;;-5.40;9.30;;;;;;4954978;29;20178;-67
2024/01/14 03:48:23;;;;;;;38.47;20.47;;;-5.20;9.40;;;;;;4954725;29;20576;-68
2024/01/14 03:50:48;;;;;;;35.70;17.10;;;-5.20;8.60;;;;;;4937622;28;20320;-67
2024/01/14 03:53:14;;;;;;;39.17;18.47;;;-5.10;7.90;;;;;;4954286;29;20210;-67
2024/01/14 03:55:40;;;;;;;33.93;17.43;;;-5.10;7.00;;;;;;4954638;29;20192;-67
2024/01/14 03:58:05;;;;;;;30.47;16.70;;;-5.20;7.40;;;;;;4937345;29;20603;-68
2024/01/14 04:00:31;;;;;;;34.73;18.00;;;-5.20;7.50;;;;;;4954459;29;20224;-68
2024/01/14 04:02:56;;;;;;;32.13;16.80;;;-5.10;6.50;;;;;;4971270;28;20208;-67
2024/01/14 04:05:22;;;;;;;32.47;17.73;;;-5.00;5.20;;;;;;4973655;28;20181;-67
2024/01/14 04:07:49;;;;;;;31.97;16.43;;;-5.10;5.10;;;;;;4973939;28;20704;-68
2024/01/14 04:10:16;;;;;;;33.38;16.27;;;-5.10;6.10;;;;;;4974143;28;20174;-67
2024/01/14 04:12:42;;;;;;;28.48;17.20;;;-5.00;6.20;;;;;;4958195;28;20304;-68
2024/01/14 04:15:08;;;;;;;32.85;18.25;;;-5.00;6.10;;;;;;4954322;29;20249;-68
2024/01/14 04:17:33;;;;;;;41.95;20.65;;;-4.90;6.70;;;;;;4954214;29;20182;-67
2024/01/14 04:20:00;;;;;;;37.30;20.37;;;-5.00;7.00;;;;;;4953894;28;20662;-67
2024/01/14 04:22:25;;;;;;;34.13;18.20;;;-5.00;7.90;;;;;;4966080;28;20283;-68
2024/01/14 04:24:51;;;;;;;32.63;19.77;;;-4.90;7.80;;;;;;4973391;28;20235;-68
2024/01/14 04:27:16;;;;;;;35.67;20.30;;;-4.90;7.60;;;;;;4959430;28;20217;-67
2024/01/14 04:29:42;;;;;;;41.73;19.73;;;-4.90;8.00;;;;;;4954030;29;20170;-68
2024/01/14 04:32:07;;;;;;;38.03;19.50;;;-4.90;9.40;;;;;;4954113;28;20239;-68
2024/01/14 04:34:34;;;;;;;40.30;21.17;;;-4.90;8.80;;;;;;4936537;29;20178;-68
2024/01/14 04:37:00;;;;;;;37.70;19.67;;;-4.90;9.40;;;;;;4953838;29;20221;-68
2024/01/14 04:39:25;;;;;;;34.87;18.87;;;-4.80;9.60;;;;;;4958894;28;20217;-68
2024/01/14 04:41:51;;;;;;;33.67;18.10;;;-4.80;9.60;;;;;;4973084;28;20589;-68
2024/01/14 04:44:16;;;;;;;35.73;17.27;;;-4.70;9.70;;;;;;4972970;28;20185;-68
2024/01/14 04:46:42;;;;;;;29.93;18.80;;;-4.60;8.80;;;;;;4973150;28;20536;-69
2024/01/14 04:49:08;;;;;;;32.10;17.88;;;-4.60;8.80;;;;;;4969821;28;20218;-67
2024/01/14 04:51:34;;;;;;;36.37;17.73;;;-4.60;8.40;;;;;;4953570;29;20703;-67
2024/01/14 04:54:02;;;;;;;34.03;20.23;;;-4.60;8.90;;;;;;4953243;29;20222;-68
2024/01/14 04:56:28;;;;;;;40.53;22.17;;;-4.60;9.30;;;;;;4953521;29;20170;-67
2024/01/14 04:58:53;;;;;;;38.27;22.90;;;-4.60;8.90;;;;;;4953896;28;20657;-68
2024/01/14 05:01:19;;;;;;;35.37;21.17;;;-4.60;9.00;;;;;;4972849;28;20429;-68
2024/01/14 05:03:44;;;;;;;46.10;21.97;;;-4.70;9.70;;;;;;4972300;28;20209;-68
2024/01/14 05:06:10;;;;;;;39.63;21.70;;;-4.80;11.10;;;;;;4955078;28;20267;-68
2024/01/14 05:08:38;;;;;;;39.37;20.07;;;-4.70;11.30;;;;;;4972506;28;20288;-68
2024/01/14 05:11:04;;;;;;;35.42;19.75;;;-4.70;9.80;;;;;;4971547;28;20432;-68
2024/01/14 05:13:29;;;;;;;41.17;19.67;;;-4.60;10.00;;;;;;4955413;28;20295;-67
2024/01/14 05:15:55;;;;;;;38.83;22.43;;;-4.60;10.60;;;;;;4973254;28;20208;-68
2024/01/14 05:18:21;;;;;;;45.30;20.57;;;-4.50;10.60;;;;;;4972869;28;20181;-67
2024/01/14 05:20:46;;;;;;;45.50;19.17;;;-4.60;9.90;;;;;;4956908;28;20665;-68
2024/01/14 05:23:12;;;;;;;34.60;20.90;;;-4.60;10.70;;;;;;4953026;29;20208;-68
2024/01/14 05:25:37;;;;;;;46.40;24.93;;;-4.60;10.90;;;;;;4953495;29;20178;-67
2024/01/14 05:28:03;;;;;;;36.17;20.83;;;-4.40;10.80;;;;;;4953144;29;20218;-67
2024/01/14 05:30:29;;;;;;;32.13;18.67;;;-4.40;11.10;;;;;;4965681;28;20539;-69
2024/01/14 05:32:54;;;;;;;37.40;22.63;;;-4.40;10.80;;;;;;4974226;28;20932;-66
2024/01/14 05:35:20;;;;;;;38.70;19.73;;;-4.40;9.90;;;;;;4976422;28;20173;-68
2024/01/14 05:37:45;;;;;;;40.63;22.70;;;-4.40;9.70;;;;;;4976507;28;20190;-67
2024/01/14 05:40:11;;;;;;;36.80;20.30;;;-4.30;9.20;;;;;;4949197;29;20204;-67
2024/01/14 05:42:40;;;;;;;28.80;19.00;;;-4.30;9.70;;;;;;4957203;28;20202;-68
2024/01/14 05:45:07;;;;;;;34.58;20.95;;;-4.30;10.00;;;;;;4969387;28;20421;-67
2024/01/14 05:47:33;;;;;;;39.22;20.67;;;-4.30;10.00;;;;;;4976398;28;20200;-68
2024/01/14 05:49:58;;;;;;;36.33;21.63;;;-4.30;10.00;;;;;;4967828;28;20225;-68
2024/01/14 05:52:24;;;;;;;35.80;20.17;;;-4.20;10.00;;;;;;4956615;29;20216;-67
2024/01/14 05:54:49;;;;;;;42.43;23.33;;;-4.20;9.70;;;;;;4957016;29;20193;-69
2024/01/14 05:57:15;;;;;;;42.23;23.80;;;-4.30;9.50;;;;;;4956897;29;20264;-67
2024/01/14 05:59:40;;;;;;;43.60;20.93;;;-4.30;9.30;;;;;;4962388;28;20181;-67
2024/01/14 06:02:06;;;;;;;32.40;20.03;;;-4.30;9.70;;;;;;4959185;28;20208;-66
2024/01/14 06:04:32;;;;;;;42.40;22.80;;;-4.30;10.00;;;;;;4975592;28;20264;-69
2024/01/14 06:06:58;;;;;;;33.97;20.42;;;-4.30;9.50;;;;;;4976098;28;20217;-68
2024/01/14 06:09:23;;;;;;;41.83;21.43;;;-4.20;9.90;;;;;;4972696;28;20213;-68
2024/01/14 06:11:49;;;;;;;38.00;20.80;;;-4.30;9.20;;;;;;4956530;29;20178;-68
2024/01/14 06:14:14;;;;;;;37.70;20.40;;;-4.30;9.00;;;;;;4957036;29;20182;-67
2024/01/14 06:16:40;;;;;;;36.87;18.23;;;-4.20;8.70;;;;;;4956835;29;20237;-68
2024/01/14 06:19:06;;;;;;;39.27;20.93;;;-4.20;8.40;;;;;;4963176;28;20177;-68
2024/01/14 06:21:31;;;;;;;36.93;18.97;;;-4.30;8.20;;;;;;4968831;28;20249;-68
2024/01/14 06:23:57;;;;;;;41.77;20.53;;;-4.30;8.50;;;;;;4956093;29;20436;-67
2024/01/14 06:26:22;;;;;;;41.63;22.50;;;-4.30;8.40;;;;;;4956449;29;20185;-68
2024/01/14 06:28:48;;;;;;;38.53;20.93;;;-4.30;8.60;;;;;;4941730;28;20513;-69
2024/01/14 06:31:13;;;;;;;41.53;20.53;;;-4.30;8.60;;;;;;4974393;28;20560;-69
2024/01/14 06:33:39;;;;;;;47.70;21.37;;;-4.20;8.80;;;;;;4975216;28;20211;-68
2024/01/14 06:36:06;;;;;;;43.63;22.07;;;-4.30;9.20;;;;;;4975515;28;20256;-70
2024/01/14 06:38:35;;;;;;;41.95;21.60;;;-4.30;9.00;;;;;;4974835;28;20644;-68
2024/01/14 06:41:01;;;;;;;34.67;19.60;;;-4.30;9.10;;;;;;4956154;29;20615;-67
2024/01/14 06:43:26;;;;;;;31.10;18.33;;;-4.30;8.60;;;;;;4955867;28;20229;-69
2024/01/14 06:45:52;;;;;;;32.93;19.03;;;-4.20;8.20;;;;;;4956082;29;20192;-69
2024/01/14 06:48:18;;;;;;;37.93;19.63;;;-4.10;8.20;;;;;;4955799;29;20205;-68
2024/01/14 06:50:43;;;;;;;41.97;22.53;;;-4.10;8.50;;;;;;4973662;28;20177;-67
2024/01/14 06:53:09;;;;;;;41.00;20.63;;;-4.10;7.40;;;;;;4974732;28;20288;-67
2024/01/14 06:55:34;;;;;;;40.67;20.80;;;-4.20;7.90;;;;;;4974932;28;20181;-67
2024/01/14 06:58:00;;;;;;;45.60;21.97;;;-4.10;8.40;;;;;;4975087;28;20181;-67
2024/01/14 07:00:25;;;;;;;40.97;22.37;;;-4.10;8.60;;;;;;4959495;28;20192;-66
2024/01/14 07:02:51;;;;;;;39.30;21.10;;;-4.10;9.00;;;;;;4955803;29;20240;-67
2024/01/14 07:05:16;;;;;;;43.27;20.80;;;-4.10;8.50;;;;;;4955595;28;20476;-67
2024/01/14 07:07:44;;;;;;;35.77;20.10;;;-4.00;7.60;;;;;;4938229;29;20210;-67
2024/01/14 07:10:10;;;;;;;38.03;20.88;;;-4.10;6.60;;;;;;4958743;28;20241;-67
2024/01/14 07:12:35;;;;;;;35.47;20.77;;;-4.10;7.10;;;;;;4970409;28;20615;-67
2024/01/14 07:15:01;;;;;;;35.80;20.03;;;-4.10;7.00;;;;;;4956066;28;20190;-67
2024/01/14 07:17:26;;;;;;;43.20;19.67;;;-4.20;7.70;;;;;;4967001;28;20652;-67
2024/01/14 07:19:52;;;;;;;38.20;21.07;;;-4.10;7.80;;;;;;4960814;28;20185;-67
2024/01/14 07:22:17;;;;;;;36.37;19.10;;;-4.10;7.60;;;;;;4974130;28;20205;-67
2024/01/14 07:24:43;;;;;;;35.43;20.60;;;-4.10;7.40;;;;;;4974417;28;20185;-67
2024/01/14 07:27:08;;;;;;;29.03;21.43;;;-4.10;7.40;;;;;;4972912;28;20181;-67
2024/01/14 07:29:34;;;;;;;37.87;21.67;;;-4.20;6.80;;;;;;4964342;28;20202;-67
2024/01/14 07:31:59;;;;;;;38.83;21.50;;;-4.10;8.10;;;;;;4937624;29;20673;-67
2024/01/14 07:34:26;;;;;;;42.27;23.13;;;-4.10;7.60;;;;;;4936852;29;20192;-67
2024/01/14 07:36:51;;;;;;;39.80;23.98;;;-4.10;8.00;;;;;;4941474;28;20583;-68
2024/01/14 07:39:17;;;;;;;35.70;21.07;;;-4.00;7.50;;;;;;4967624;28;20249;-68
2024/01/14 07:41:42;;;;;;;37.03;21.90;;;-4.10;8.60;;;;;;4954983;29;20579;-67
2024/01/14 07:44:08;;;;;;;32.97;21.43;;;-4.10;9.30;;;;;;4954731;29;20669;-68
2024/01/14 07:46:33;;;;;;;33.80;17.17;;;-3.90;9.50;;;;;;4937663;29;20182;-68
2024/01/14 07:49:00;;;;;;;37.80;20.10;;;-4.00;9.20;;;;;;4954815;29;20736;-70
2024/01/14 07:51:25;;;;;;;44.08;21.30;;;-3.90;9.80;;;;;;4955193;28;20200;-69
2024/01/14 07:53:51;;;;;;;36.60;17.37;;;-3.90;9.70;;;;;;4954720;28;20213;-67
2024/01/14 07:56:18;;;;;;;35.97;17.57;;;-4.00;8.20;;;;;;4954214;28;20665;-67
2024/01/14 07:58:44;;;;;;;35.97;18.88;;;-3.90;8.50;;;;;;4954698;29;20179;-67
2024/01/14 08:01:10;;;;;;;35.67;21.27;;;-3.80;7.80;;;;;;4956778;28;20675;-68
2024/01/14 08:03:36;;;;;;;32.33;18.23;;;-3.90;6.80;;;;;;4973523;28;20680;-67
2024/01/14 08:06:01;;;;;;;27.57;18.47;;;-3.90;6.90;;;;;;4974075;28;20184;-67
2024/01/14 08:08:27;;;;;;;32.87;16.80;;;-3.60;6.80;;;;;;4973523;28;20217;-67
2024/01/14 08:10:53;;;;;;;34.50;19.90;;;-3.50;6.20;;;;;;4973126;28;20423;-68
2024/01/14 08:13:19;;;;;;;30.60;16.63;;;-3.40;4.80;;;;;;4953107;28;20433;-67
2024/01/14 08:15:44;;;;;;;45.20;18.33;;;-3.30;5.30;;;;;;4954095;29;20425;-67
2024/01/14 08:18:10;;;;;;;32.80;18.53;;;-3.30;2.50;;;;;;4954258;29;20225;-67
2024/01/14 08:20:36;;;;;;;33.87;20.97;;;-3.50;1.10;;;;;;4954296;29;20190;-68
2024/01/14 08:23:02;;;;;;;29.57;16.80;;;-3.60;1.00;;;;;;4954136;28;20457;-68
2024/01/14 08:25:27;;;;;;;36.90;20.27;;;-3.70;1.00;;;;;;4954182;29;20272;-72
2024/01/14 08:27:53;;;;;;;33.17;18.10;;;-3.70;1.00;;;;;;4971771;28;20292;-68
2024/01/14 08:30:19;;;;;;;34.87;21.20;;;-3.60;1.00;;;;;;4956007;28;20556;-68
2024/01/14 08:32:45;;;;;;;33.90;17.60;;;-3.70;1.00;;;;;;4973101;28;20284;-68
2024/01/14 08:35:17;;;;;;;32.07;16.60;;;-3.60;1.00;;;;;;4972096;28;20209;-68
2024/01/14 08:37:43;;;;;;;36.10;19.05;;;-3.60;1.80;;;;;;4956521;28;20512;-68
2024/01/14 08:40:10;;;;;;;34.50;19.37;;;-3.60;3.30;;;;;;4953948;29;20205;-68
2024/01/14 08:42:36;;;;;;;37.35;18.75;;;-3.70;3.90;;;;;;4936450;29;20244;-68
2024/01/14 08:45:03;;;;;;;34.07;16.90;;;-3.70;3.90;;;;;;4955671;28;20211;-68
2024/01/14 08:47:28;;;;;;;39.72;19.10;;;-3.60;4.00;;;;;;4972891;28;20450;-68
2024/01/14 08:49:54;;;;;;;32.20;18.63;;;-3.50;2.90;;;;;;4972997;28;20261;-68
2024/01/14 08:52:20;;;;;;;29.20;16.30;;;-3.40;1.10;;;;;;4996617;23;20507;-68
2024/01/14 08:54:45;;;;;;;39.03;21.70;;;-3.40;1.00;;;;;;4993917;28;20243;-67
2024/01/14 08:57:12;;;;;;;34.20;17.80;;;-3.50;1.00;;;;;;4992591;28;20182;-68
2024/01/14 08:59:38;;;;;;;32.53;18.27;;;-3.50;1.00;;;;;;4975900;28;20186;-68
2024/01/14 09:02:03;;;;;;;30.10;18.07;;;-3.50;1.00;;;;;;4974460;28;20176;-68
2024/01/14 09:04:29;;;;;;;32.50;16.30;;;-3.60;1.00;;;;;;4973632;28;20264;-68
2024/01/14 09:06:55;;;;;;;25.17;15.37;;;-3.60;1.00;;;;;;4955080;28;20181;-68
2024/01/14 09:09:20;;;;;;;37.10;18.10;;;-3.50;1.00;;;;;;4955942;28;20220;-68
2024/01/14 09:11:46;;;;;;;32.60;17.30;;;-3.30;1.00;;;;;;4973438;28;20183;-68
2024/01/14 09:14:12;;;;;;;26.00;14.60;;;-3.20;1.00;;;;;;4955559;28;20197;-68
2024/01/14 09:16:37;;;;;;;24.70;14.93;;;-3.10;1.00;;;;;;4973246;28;20245;-68
2024/01/14 09:19:03;;;;;;;31.47;15.43;;;-3.00;1.00;;;;;;4973441;28;20186;-68
2024/01/14 09:21:28;;;;;;;25.33;14.13;;;-3.10;1.00;;;;;;4973498;28;20544;-69
2024/01/14 09:23:54;;;;;;;33.80;15.20;;;-3.20;1.00;;;;;;4972969;28;20540;-67
2024/01/14 09:26:20;;;;;;;28.33;15.57;;;-3.20;1.00;;;;;;4973422;28;20177;-67
2024/01/14 09:28:45;;;;;;;31.23;15.93;;;-3.10;1.00;;;;;;4955619;28;20468;-66
2024/01/14 09:31:12;;;;;;;29.80;14.87;;;-2.90;1.00;;;;;;4973038;28;20577;-67
2024/01/14 09:33:37;;;;;;;28.60;17.02;;;-2.80;1.00;;;;;;4972958;28;20209;-67
2024/01/14 09:36:08;;;;;;;30.40;16.80;;;-2.90;1.00;;;;;;4972952;28;20266;-68
2024/01/14 09:38:34;;;;;;;26.55;16.13;;;-3.00;1.00;;;;;;4972913;28;20323;-68
2024/01/14 09:41:25;;;;;;;32.20;19.63;;;-2.90;1.00;;;;;;4972842;28;20676;-67
2024/01/14 09:43:51;;;;;;;31.73;17.55;;;-3.00;1.00;;;;;;4955316;28;20646;-68
2024/01/14 09:46:18;;;;;;;31.13;17.10;;;-2.90;1.00;;;;;;4973007;28;20180;-68
2024/01/14 09:48:48;;;;;;;37.97;20.00;;;-2.80;1.00;;;;;;4972970;28;20203;-68
2024/01/14 09:51:17;;;;;;;29.77;17.10;;;-2.80;1.00;;;;;;4973199;28;20183;-68
2024/01/14 09:53:43;;;;;;;27.10;18.08;;;-2.80;1.00;;;;;;4955061;28;20263;-68
2024/01/14 09:56:13;;;;;;;30.37;17.67;;;-2.70;1.00;;;;;;4973404;28;20211;-67
2024/01/14 09:58:40;;;;;;;27.45;14.57;;;-2.50;1.00;;;;;;4955466;28;20523;-68
2024/01/14 10:01:09;;;;;;;25.17;15.32;;;-2.50;1.00;;;;;;4973282;28;20238;-68
2024/01/14 10:03:34;;;;;;;24.50;15.48;;;-2.60;1.00;;;;;;4972774;28;20207;-68
2024/01/14 10:06:01;;;;;;;35.17;19.00;;;-2.70;1.00;;;;;;4955810;28;20199;-67
2024/01/14 10:08:27;;;;;;;28.52;17.15;;;-2.80;1.00;;;;;;4972867;28;20207;-68
2024/01/14 10:10:53;;;;;;;27.90;15.80;;;-2.60;1.00;;;;;;4973337;28;20174;-68
2024/01/14 10:13:22;;;;;;;27.57;17.00;;;-2.50;1.00;;;;;;4972958;28;20446;-69
2024/01/14 10:15:48;;;;;;;28.70;15.07;;;-2.50;1.00;;;;;;4973911;28;20495;-68
2024/01/14 10:18:17;;;;;;;28.73;15.55;;;-2.40;1.00;;;;;;4973829;28;20239;-69
2024/01/14 10:20:42;;;;;;;26.35;16.90;;;-2.30;1.00;;;;;;4976872;28;20173;-68
2024/01/14 10:23:08;;;;;;;26.47;16.40;;;-2.20;1.00;;;;;;4976350;28;20199;-69
2024/01/14 10:25:34;;;;;;;33.77;18.80;;;-2.10;1.00;;;;;;4977035;28;20185;-69
2024/01/14 10:28:07;;;;;;;32.13;18.20;;;-2.10;1.00;;;;;;4976306;28;20200;-68
2024/01/14 10:30:32;;;;;;;31.40;17.85;;;-2.00;1.00;;;;;;4976716;28;20486;-69
2024/01/14 10:32:58;;;;;;;30.63;16.73;;;-1.90;1.00;;;;;;4975860;28;20550;-69
2024/01/14 10:35:24;;;;;;;26.00;16.03;;;-1.90;1.00;;;;;;4976429;28;20482;-69
2024/01/14 10:37:50;;;;;;;25.40;17.33;;;-1.90;1.00;;;;;;4976093;28;20210;-69
2024/01/14 10:40:17;;;;;;;30.17;16.93;;;-1.70;1.00;;;;;;4976101;28;20218;-69
2024/01/14 10:42:43;;;;;;;32.13;16.20;;;-1.60;1.00;;;;;;4975443;28;20205;-67
2024/01/14 10:45:11;;;;;;;32.97;17.83;;;-1.50;1.00;;;;;;4958234;28;20259;-68
2024/01/14 10:47:37;;;;;;;30.23;16.35;;;-1.30;1.00;;;;;;4975684;28;20224;-67
2024/01/14 10:50:03;;;;;;;32.20;19.40;;;-1.30;1.00;;;;;;4975530;28;20176;-68
2024/01/14 10:52:37;;;;;;;28.67;16.13;;;-1.20;1.00;;;;;;4975061;28;20343;-68
2024/01/14 10:55:44;;;;;;;33.30;18.90;;;-1.20;1.00;;;;;;4976490;28;20180;-68
2024/01/14 10:58:26;;;;;;;28.77;16.42;;;-1.20;1.00;;;;;;4972697;28;20196;-67
2024/01/14 11:00:55;;;;;;;24.13;13.95;;;-1.20;1.00;;;;;;4958227;28;20542;-70
2024/01/14 11:03:21;;;;;;;24.65;15.10;;;-1.30;1.00;;;;;;4976683;28;20201;-68
2024/01/14 11:05:47;;;;;;;29.40;17.25;;;-1.30;1.00;;;;;;4979395;28;20212;-68
2024/01/14 11:08:13;;;;;;;30.70;17.70;;;-1.30;1.00;;;;;;4977555;28;20208;-68
2024/01/14 11:10:39;;;;;;;30.47;17.00;;;-1.10;1.00;;;;;;4975731;28;20173;-68
2024/01/14 11:13:22;;;;;;;25.42;17.58;;;-0.90;1.00;;;;;;4974971;28;20447;-68
2024/01/14 11:16:03;;;;;;;32.40;16.05;;;-0.90;1.00;;;;;;4975546;28;20558;-68
2024/01/14 11:18:45;;;;;;;27.67;17.20;;;-0.90;1.00;;;;;;4975427;28;20524;-68
2024/01/14 11:21:39;;;;;;;31.30;16.98;;;-0.80;1.00;;;;;;4958051;28;20296;-68
2024/01/14 11:24:05;;;;;;;36.17;18.80;;;-0.60;1.00;;;;;;4975114;28;20243;-69
2024/01/14 11:26:31;;;;;;;32.35;17.13;;;-0.60;1.00;;;;;;4975160;28;20189;-69
2024/01/14 11:29:00;;;;;;;33.30;16.40;;;-0.40;1.00;;;;;;4975198;28;20688;-69
2024/01/14 11:32:03;;;;;;;29.27;15.77;;;-0.40;1.00;;;;;;4964571;28;20460;-68
2024/01/14 11:34:47;;;;;;;34.67;19.50;;;-0.30;1.00;;;;;;4955192;29;20652;-69
2024/01/14 11:37:35;;;;;;;31.08;17.23;;;-0.20;1.00;;;;;;4973843;28;20181;-68
2024/01/14 11:40:06;;;;;;;30.30;17.58;;;-0.20;1.00;;;;;;4975089;28;20174;-69
2024/01/14 11:42:36;;;;;;;29.08;17.45;;;-0.30;1.00;;;;;;4974516;28;20572;-67
2024/01/14 11:45:03;;;;;;;32.78;17.98;;;-0.20;1.00;;;;;;4974765;28;20218;-67
2024/01/14 11:47:41;;;;;;;23.67;15.68;;;-0.10;1.00;;;;;;4975081;28;20235;-67
2024/01/14 11:50:09;;;;;;;29.90;18.55;;;0.00;1.00;;;;;;4957688;28;20181;-69
2024/01/14 11:52:52;;;;;;;26.50;16.58;;;0.20;1.00;;;;;;4957054;28;20220;-68
2024/01/14 11:55:25;;;;;;;31.40;17.52;;;0.30;1.00;;;;;;4974317;28;20742;-68
2024/01/14 11:57:51;;;;;;;24.65;16.75;;;0.40;1.00;;;;;;4974607;28;20196;-68
2024/01/14 12:00:22;;;;;;;31.15;19.05;;;0.40;1.00;;;;;;4974453;28;20176;-68
2024/01/14 12:02:47;;;;;;;30.95;18.08;;;0.40;1.00;;;;;;4974837;28;20205;-69
2024/01/14 12:05:16;;;;;;;30.97;17.07;;;0.50;1.00;;;;;;4974520;28;20177;-68
2024/01/14 12:07:42;;;;;;;31.45;18.55;;;0.50;1.00;;;;;;4974165;28;20201;-68
2024/01/14 12:10:16;;;;;;;39.15;22.05;;;0.30;1.00;;;;;;4974195;28;20180;-68
2024/01/14 12:12:42;;;;;;;28.48;17.15;;;0.30;1.00;;;;;;4974018;28;20213;-67
2024/01/14 12:15:09;;;;;;;28.65;15.95;;;0.50;1.00;;;;;;4974315;28;20426;-68
2024/01/14 12:17:35;;;;;;;30.08;17.08;;;0.60;1.00;;;;;;4974705;28;20184;-67
2024/01/14 12:20:04;;;;;;;35.53;21.80;;;0.70;1.00;;;;;;4956446;28;20657;-68
2024/01/14 12:22:30;;;;;;;27.65;16.95;;;0.70;1.00;;;;;;4973791;28;20440;-68
2024/01/14 12:24:56;;;;;;;30.63;15.23;;;0.40;1.00;;;;;;4974361;28;20229;-68
2024/01/14 12:27:21;;;;;;;26.70;15.80;;;0.60;1.00;;;;;;4974591;28;20428;-67
2024/01/14 12:29:47;;;;;;;25.27;15.30;;;0.60;1.00;;;;;;4956734;28;20231;-67
2024/01/14 12:32:13;;;;;;;27.15;17.40;;;0.60;1.00;;;;;;4973597;28;20546;-67
2024/01/14 12:34:40;;;;;;;26.30;17.50;;;0.50;1.00;;;;;;4973595;28;20174;-67